sensor_id;sensor_type;location;lat;lon;timestamp;temperature;humidity
32201;DHT22;18701;45.588;5.288;2023-03-31T00:02:18;15.40;99.90
32201;DHT22;18701;45.588;5.288;2023-03-31T00:04:47;15.40;99.90
32201;DHT22;18701;45.588;5.288;2023-03-31T00:07:18;15.40;99.90
32201;DHT22;18701;45.588;5.288;2023-03-31T00:09:47;15.30;99.90
32201;DHT22;18701;45.588;5.288;2023-03-31T00:12:14;15.30;99.90
32201;DHT22;18701;45.588;5.288;2023-03-31T00:14:41;15.30;99.90
32201;DHT22;18701;45.588;5.288;2023-03-31T00:17:08;15.30;99.90
32201;DHT22;18701;45.588;5.288;2023-03-31T00:19:35;15.30;99.90
32201;DHT22;18701;45.588;5.288;2023-03-31T00:22:00;15.40;99.90
32201;DHT22;18701;45.588;5.288;2023-03-31T00:24:27;15.40;99.90
32201;DHT22;18701;45.588;5.288;2023-03-31T00:26:53;15.40;99.90
32201;DHT22;18701;45.588;5.288;2023-03-31T00:29:18;15.40;99.90
32201;DHT22;18701;45.588;5.288;2023-03-31T00:31:44;15.30;99.90
32201;DHT22;18701;45.588;5.288;2023-03-31T00:34:09;15.30;99.90
32201;DHT22;18701;45.588;5.288;2023-03-31T00:36:35;15.10;99.90
32201;DHT22;18701;45.588;5.288;2023-03-31T00:39:12;15.20;99.90
32201;DHT22;18701;45.588;5.288;2023-03-31T00:41:38;15.30;99.90
32201;DHT22;18701;45.588;5.288;2023-03-31T00:44:19;15.30;99.90
32201;DHT22;18701;45.588;5.288;2023-03-31T00:46:52;15.20;99.90
32201;DHT22;18701;45.588;5.288;2023-03-31T00:51:53;15.20;99.90
32201;DHT22;18701;45.588;5.288;2023-03-31T00:54:20;15.20;99.90
32201;DHT22;18701;45.588;5.288;2023-03-31T00:56:50;15.20;99.90
32201;DHT22;18701;45.588;5.288;2023-03-31T00:59:20;15.20;99.90
32201;DHT22;18701;45.588;5.288;2023-03-31T01:01:48;15.20;99.90
32201;DHT22;18701;45.588;5.288;2023-03-31T01:04:15;15.20;99.90
32201;DHT22;18701;45.588;5.288;2023-03-31T01:06:57;15.20;99.90
32201;DHT22;18701;45.588;5.288;2023-03-31T01:09:29;15.20;99.90
32201;DHT22;18701;45.588;5.288;2023-03-31T01:12:00;15.20;99.90
32201;DHT22;18701;45.588;5.288;2023-03-31T01:14:27;15.20;99.90
32201;DHT22;18701;45.588;5.288;2023-03-31T01:16:52;15.10;99.90
32201;DHT22;18701;45.588;5.288;2023-03-31T01:19:50;15.20;99.90
32201;DHT22;18701;45.588;5.288;2023-03-31T01:47:01;15.00;99.90
32201;DHT22;18701;45.588;5.288;2023-03-31T01:49:50;15.00;99.90
32201;DHT22;18701;45.588;5.288;2023-03-31T01:52:48;15.00;99.90
32201;DHT22;18701;45.588;5.288;2023-03-31T01:55:29;15.00;99.90
32201;DHT22;18701;45.588;5.288;2023-03-31T01:58:01;14.90;99.90
32201;DHT22;18701;45.588;5.288;2023-03-31T02:00:33;14.90;99.90
32201;DHT22;18701;45.588;5.288;2023-03-31T02:03:08;14.90;99.90
32201;DHT22;18701;45.588;5.288;2023-03-31T02:05:57;14.90;99.90
32201;DHT22;18701;45.588;5.288;2023-03-31T02:08:36;14.90;99.90
32201;DHT22;18701;45.588;5.288;2023-03-31T02:11:02;14.90;99.90
32201;DHT22;18701;45.588;5.288;2023-03-31T02:13:28;14.90;99.90
32201;DHT22;18701;45.588;5.288;2023-03-31T02:15:59;14.90;99.90
32201;DHT22;18701;45.588;5.288;2023-03-31T02:18:29;14.80;99.90
32201;DHT22;18701;45.588;5.288;2023-03-31T02:20:58;14.70;99.90
32201;DHT22;18701;45.588;5.288;2023-03-31T02:23:27;14.80;99.90
32201;DHT22;18701;45.588;5.288;2023-03-31T02:26:09;14.90;99.90
32201;DHT22;18701;45.588;5.288;2023-03-31T02:28:36;14.90;99.90
32201;DHT22;18701;45.588;5.288;2023-03-31T02:33:47;14.80;99.90
32201;DHT22;18701;45.588;5.288;2023-03-31T02:36:17;14.70;99.90
32201;DHT22;18701;45.588;5.288;2023-03-31T02:38:59;14.70;99.90
32201;DHT22;18701;45.588;5.288;2023-03-31T02:41:27;14.50;99.90
32201;DHT22;18701;45.588;5.288;2023-03-31T02:43:52;14.60;99.90
32201;DHT22;18701;45.588;5.288;2023-03-31T02:46:21;14.50;99.90
32201;DHT22;18701;45.588;5.288;2023-03-31T02:48:53;14.50;99.90
32201;DHT22;18701;45.588;5.288;2023-03-31T02:57:11;14.60;99.90
32201;DHT22;18701;45.588;5.288;2023-03-31T03:11:38;14.50;99.90
32201;DHT22;18701;45.588;5.288;2023-03-31T03:13:48;14.40;99.90
32201;DHT22;18701;45.588;5.288;2023-03-31T03:16:26;14.40;99.90
32201;DHT22;18701;45.588;5.288;2023-03-31T03:19:01;14.40;99.90
32201;DHT22;18701;45.588;5.288;2023-03-31T03:21:28;14.40;99.90
32201;DHT22;18701;45.588;5.288;2023-03-31T03:23:54;14.30;99.90
32201;DHT22;18701;45.588;5.288;2023-03-31T03:26:20;14.30;99.90
32201;DHT22;18701;45.588;5.288;2023-03-31T03:28:49;14.20;99.90
32201;DHT22;18701;45.588;5.288;2023-03-31T03:31:15;14.20;99.90
32201;DHT22;18701;45.588;5.288;2023-03-31T03:33:41;14.30;99.90
32201;DHT22;18701;45.588;5.288;2023-03-31T03:36:07;14.30;99.90
32201;DHT22;18701;45.588;5.288;2023-03-31T03:38:33;14.30;99.90
32201;DHT22;18701;45.588;5.288;2023-03-31T03:40:59;14.40;99.90
32201;DHT22;18701;45.588;5.288;2023-03-31T03:43:25;14.40;99.90
32201;DHT22;18701;45.588;5.288;2023-03-31T03:45:51;14.30;99.90
32201;DHT22;18701;45.588;5.288;2023-03-31T03:48:17;14.50;99.90
32201;DHT22;18701;45.588;5.288;2023-03-31T03:50:44;14.40;99.90
32201;DHT22;18701;45.588;5.288;2023-03-31T03:53:11;14.40;99.90
32201;DHT22;18701;45.588;5.288;2023-03-31T03:55:36;14.40;99.90
32201;DHT22;18701;45.588;5.288;2023-03-31T03:58:02;14.50;99.90
32201;DHT22;18701;45.588;5.288;2023-03-31T04:00:27;14.40;99.90
32201;DHT22;18701;45.588;5.288;2023-03-31T04:02:53;14.40;99.90
32201;DHT22;18701;45.588;5.288;2023-03-31T04:05:19;14.40;99.90
32201;DHT22;18701;45.588;5.288;2023-03-31T04:07:44;14.30;99.90
32201;DHT22;18701;45.588;5.288;2023-03-31T04:10:10;14.40;99.90
32201;DHT22;18701;45.588;5.288;2023-03-31T04:12:36;14.30;99.90
32201;DHT22;18701;45.588;5.288;2023-03-31T04:15:02;14.20;99.90
32201;DHT22;18701;45.588;5.288;2023-03-31T04:17:28;14.30;99.90
32201;DHT22;18701;45.588;5.288;2023-03-31T04:20:01;14.30;99.90
32201;DHT22;18701;45.588;5.288;2023-03-31T04:22:32;14.30;99.90
32201;DHT22;18701;45.588;5.288;2023-03-31T04:25:07;14.20;99.90
32201;DHT22;18701;45.588;5.288;2023-03-31T04:27:46;14.30;99.90
32201;DHT22;18701;45.588;5.288;2023-03-31T04:30:15;14.30;99.90
32201;DHT22;18701;45.588;5.288;2023-03-31T04:32:48;14.20;99.90
32201;DHT22;18701;45.588;5.288;2023-03-31T04:35:16;14.30;99.90
32201;DHT22;18701;45.588;5.288;2023-03-31T04:37:43;14.30;99.90
32201;DHT22;18701;45.588;5.288;2023-03-31T04:40:09;14.30;99.90
32201;DHT22;18701;45.588;5.288;2023-03-31T04:42:35;14.30;99.90
32201;DHT22;18701;45.588;5.288;2023-03-31T04:45:02;14.30;99.90
32201;DHT22;18701;45.588;5.288;2023-03-31T04:47:27;14.30;99.90
32201;DHT22;18701;45.588;5.288;2023-03-31T04:49:53;14.30;99.90
32201;DHT22;18701;45.588;5.288;2023-03-31T04:52:18;14.30;99.90
32201;DHT22;18701;45.588;5.288;2023-03-31T04:54:44;14.30;99.90
32201;DHT22;18701;45.588;5.288;2023-03-31T04:57:10;14.30;99.90
32201;DHT22;18701;45.588;5.288;2023-03-31T04:59:36;14.30;99.90
32201;DHT22;18701;45.588;5.288;2023-03-31T05:02:01;14.30;99.90
32201;DHT22;18701;45.588;5.288;2023-03-31T05:04:27;14.30;99.90
32201;DHT22;18701;45.588;5.288;2023-03-31T05:06:52;14.30;99.90
32201;DHT22;18701;45.588;5.288;2023-03-31T05:09:20;14.30;99.90
32201;DHT22;18701;45.588;5.288;2023-03-31T05:11:46;14.40;99.90
32201;DHT22;18701;45.588;5.288;2023-03-31T05:14:12;14.40;99.90
32201;DHT22;18701;45.588;5.288;2023-03-31T05:16:38;14.40;99.90
32201;DHT22;18701;45.588;5.288;2023-03-31T05:19:03;14.30;99.90
32201;DHT22;18701;45.588;5.288;2023-03-31T05:21:29;14.40;99.90
32201;DHT22;18701;45.588;5.288;2023-03-31T05:23:56;14.30;99.90
32201;DHT22;18701;45.588;5.288;2023-03-31T05:26:22;14.30;99.90
32201;DHT22;18701;45.588;5.288;2023-03-31T05:28:50;14.40;99.90
32201;DHT22;18701;45.588;5.288;2023-03-31T05:31:16;14.40;99.90
32201;DHT22;18701;45.588;5.288;2023-03-31T05:33:41;14.50;99.90
32201;DHT22;18701;45.588;5.288;2023-03-31T05:36:09;14.50;99.90
32201;DHT22;18701;45.588;5.288;2023-03-31T05:38:35;14.40;99.90
32201;DHT22;18701;45.588;5.288;2023-03-31T05:41:00;14.40;99.90
32201;DHT22;18701;45.588;5.288;2023-03-31T05:43:26;14.40;99.90
32201;DHT22;18701;45.588;5.288;2023-03-31T05:45:51;14.40;99.90
32201;DHT22;18701;45.588;5.288;2023-03-31T05:48:17;14.40;99.90
32201;DHT22;18701;45.588;5.288;2023-03-31T05:50:46;14.40;99.90
32201;DHT22;18701;45.588;5.288;2023-03-31T05:53:11;14.40;99.90
32201;DHT22;18701;45.588;5.288;2023-03-31T05:55:38;14.40;99.90
32201;DHT22;18701;45.588;5.288;2023-03-31T05:58:04;14.40;99.90
32201;DHT22;18701;45.588;5.288;2023-03-31T06:00:29;14.50;99.90
32201;DHT22;18701;45.588;5.288;2023-03-31T06:02:56;14.40;99.90
32201;DHT22;18701;45.588;5.288;2023-03-31T06:05:22;14.50;99.90
32201;DHT22;18701;45.588;5.288;2023-03-31T06:07:51;14.50;99.90
32201;DHT22;18701;45.588;5.288;2023-03-31T06:10:17;14.50;99.90
32201;DHT22;18701;45.588;5.288;2023-03-31T06:12:42;14.50;99.90
32201;DHT22;18701;45.588;5.288;2023-03-31T06:15:08;14.50;99.90
32201;DHT22;18701;45.588;5.288;2023-03-31T06:17:34;14.50;99.90
32201;DHT22;18701;45.588;5.288;2023-03-31T06:20:00;14.40;99.90
32201;DHT22;18701;45.588;5.288;2023-03-31T06:22:26;14.40;99.90
32201;DHT22;18701;45.588;5.288;2023-03-31T06:24:52;14.40;99.90
32201;DHT22;18701;45.588;5.288;2023-03-31T06:27:17;14.40;99.90
32201;DHT22;18701;45.588;5.288;2023-03-31T06:29:46;14.30;99.90
32201;DHT22;18701;45.588;5.288;2023-03-31T06:32:11;14.20;99.90
32201;DHT22;18701;45.588;5.288;2023-03-31T06:34:37;14.20;99.90
32201;DHT22;18701;45.588;5.288;2023-03-31T06:37:03;14.30;99.90
32201;DHT22;18701;45.588;5.288;2023-03-31T06:39:28;14.30;99.90
32201;DHT22;18701;45.588;5.288;2023-03-31T06:41:54;14.30;99.90
32201;DHT22;18701;45.588;5.288;2023-03-31T06:44:20;14.40;99.90
32201;DHT22;18701;45.588;5.288;2023-03-31T06:46:47;14.40;99.90
32201;DHT22;18701;45.588;5.288;2023-03-31T06:49:13;14.50;99.90
32201;DHT22;18701;45.588;5.288;2023-03-31T06:51:39;14.40;99.90
32201;DHT22;18701;45.588;5.288;2023-03-31T06:54:04;14.40;99.90
32201;DHT22;18701;45.588;5.288;2023-03-31T06:56:30;14.30;99.90
32201;DHT22;18701;45.588;5.288;2023-03-31T06:58:56;14.40;99.90
32201;DHT22;18701;45.588;5.288;2023-03-31T07:01:22;14.30;99.90
32201;DHT22;18701;45.588;5.288;2023-03-31T07:03:47;14.40;99.90
32201;DHT22;18701;45.588;5.288;2023-03-31T07:06:13;14.30;99.90
32201;DHT22;18701;45.588;5.288;2023-03-31T07:08:38;14.20;99.90
32201;DHT22;18701;45.588;5.288;2023-03-31T07:11:04;14.30;99.90
32201;DHT22;18701;45.588;5.288;2023-03-31T07:13:30;14.30;99.90
32201;DHT22;18701;45.588;5.288;2023-03-31T07:15:56;14.30;99.90
32201;DHT22;18701;45.588;5.288;2023-03-31T07:18:22;14.20;99.90
32201;DHT22;18701;45.588;5.288;2023-03-31T07:20:56;14.10;99.90
32201;DHT22;18701;45.588;5.288;2023-03-31T07:23:22;14.20;99.90
32201;DHT22;18701;45.588;5.288;2023-03-31T07:25:47;14.20;99.90
32201;DHT22;18701;45.588;5.288;2023-03-31T07:28:13;14.20;99.90
32201;DHT22;18701;45.588;5.288;2023-03-31T07:30:39;14.10;99.90
32201;DHT22;18701;45.588;5.288;2023-03-31T07:33:06;14.30;99.90
32201;DHT22;18701;45.588;5.288;2023-03-31T07:35:32;14.40;99.90
32201;DHT22;18701;45.588;5.288;2023-03-31T07:37:57;14.40;99.90
32201;DHT22;18701;45.588;5.288;2023-03-31T07:40:25;14.40;99.90
32201;DHT22;18701;45.588;5.288;2023-03-31T07:42:52;14.50;99.90
32201;DHT22;18701;45.588;5.288;2023-03-31T07:45:19;14.50;99.90
32201;DHT22;18701;45.588;5.288;2023-03-31T07:47:45;14.50;99.90
32201;DHT22;18701;45.588;5.288;2023-03-31T07:50:13;14.60;99.90
32201;DHT22;18701;45.588;5.288;2023-03-31T07:52:39;14.50;99.90
32201;DHT22;18701;45.588;5.288;2023-03-31T07:55:06;14.50;99.90
32201;DHT22;18701;45.588;5.288;2023-03-31T07:57:32;14.60;99.90
32201;DHT22;18701;45.588;5.288;2023-03-31T07:59:58;14.60;99.90
32201;DHT22;18701;45.588;5.288;2023-03-31T08:02:23;14.40;99.90
32201;DHT22;18701;45.588;5.288;2023-03-31T08:04:52;14.40;99.90
32201;DHT22;18701;45.588;5.288;2023-03-31T08:07:18;14.50;99.90
32201;DHT22;18701;45.588;5.288;2023-03-31T08:09:45;14.60;99.90
32201;DHT22;18701;45.588;5.288;2023-03-31T08:12:11;14.70;99.90
32201;DHT22;18701;45.588;5.288;2023-03-31T08:14:37;14.50;99.90
32201;DHT22;18701;45.588;5.288;2023-03-31T08:17:02;14.50;99.90
32201;DHT22;18701;45.588;5.288;2023-03-31T08:19:28;14.60;99.90
32201;DHT22;18701;45.588;5.288;2023-03-31T08:21:54;14.40;99.90
32201;DHT22;18701;45.588;5.288;2023-03-31T08:24:22;14.50;99.90
32201;DHT22;18701;45.588;5.288;2023-03-31T08:26:48;14.60;99.90
32201;DHT22;18701;45.588;5.288;2023-03-31T08:29:14;14.70;99.90
32201;DHT22;18701;45.588;5.288;2023-03-31T08:31:39;14.60;99.90
32201;DHT22;18701;45.588;5.288;2023-03-31T08:34:05;14.60;99.90
32201;DHT22;18701;45.588;5.288;2023-03-31T08:36:31;14.70;99.90
32201;DHT22;18701;45.588;5.288;2023-03-31T08:38:57;14.90;99.90
32201;DHT22;18701;45.588;5.288;2023-03-31T08:44:30;15.30;99.90
32201;DHT22;18701;45.588;5.288;2023-03-31T08:46:55;15.40;99.90
32201;DHT22;18701;45.588;5.288;2023-03-31T08:49:22;15.40;99.90
32201;DHT22;18701;45.588;5.288;2023-03-31T08:52:03;15.40;99.90
32201;DHT22;18701;45.588;5.288;2023-03-31T08:54:40;15.20;99.90
32201;DHT22;18701;45.588;5.288;2023-03-31T08:57:18;15.30;99.90
32201;DHT22;18701;45.588;5.288;2023-03-31T08:59:45;15.40;99.90
32201;DHT22;18701;45.588;5.288;2023-03-31T09:02:42;15.70;99.90
32201;DHT22;18701;45.588;5.288;2023-03-31T09:05:34;15.50;99.90
32201;DHT22;18701;45.588;5.288;2023-03-31T09:08:12;15.90;99.90
32201;DHT22;18701;45.588;5.288;2023-03-31T09:10:55;15.90;99.90
32201;DHT22;18701;45.588;5.288;2023-03-31T09:13:36;15.90;99.90
32201;DHT22;18701;45.588;5.288;2023-03-31T09:18:47;15.90;99.90
32201;DHT22;18701;45.588;5.288;2023-03-31T09:21:25;15.40;99.90
32201;DHT22;18701;45.588;5.288;2023-03-31T09:26:26;15.40;99.90
32201;DHT22;18701;45.588;5.288;2023-03-31T09:28:55;15.50;99.90
32201;DHT22;18701;45.588;5.288;2023-03-31T09:31:22;15.60;99.90
32201;DHT22;18701;45.588;5.288;2023-03-31T09:33:52;15.50;99.90
32201;DHT22;18701;45.588;5.288;2023-03-31T09:36:22;15.40;99.90
32201;DHT22;18701;45.588;5.288;2023-03-31T09:38:48;15.60;99.90
32201;DHT22;18701;45.588;5.288;2023-03-31T09:41:16;16.00;99.90
32201;DHT22;18701;45.588;5.288;2023-03-31T09:43:42;16.00;99.90
32201;DHT22;18701;45.588;5.288;2023-03-31T09:46:23;16.40;99.90
32201;DHT22;18701;45.588;5.288;2023-03-31T09:51:28;16.70;99.90
32201;DHT22;18701;45.588;5.288;2023-03-31T09:54:06;16.90;99.90
32201;DHT22;18701;45.588;5.288;2023-03-31T09:59:21;17.50;99.90
32201;DHT22;18701;45.588;5.288;2023-03-31T10:01:56;17.60;99.90
32201;DHT22;18701;45.588;5.288;2023-03-31T10:04:28;17.30;99.90
32201;DHT22;18701;45.588;5.288;2023-03-31T10:06:55;17.10;99.90
32201;DHT22;18701;45.588;5.288;2023-03-31T10:09:31;17.30;99.90
32201;DHT22;18701;45.588;5.288;2023-03-31T10:12:04;17.40;99.90
32201;DHT22;18701;45.588;5.288;2023-03-31T10:14:44;17.60;99.90
32201;DHT22;18701;45.588;5.288;2023-03-31T10:17:16;17.70;99.90
32201;DHT22;18701;45.588;5.288;2023-03-31T10:20:47;17.70;99.90
32201;DHT22;18701;45.588;5.288;2023-03-31T10:23:22;17.60;99.90
32201;DHT22;18701;45.588;5.288;2023-03-31T10:25:48;17.50;99.90
32201;DHT22;18701;45.588;5.288;2023-03-31T10:28:18;17.30;99.90
32201;DHT22;18701;45.588;5.288;2023-03-31T10:30:52;17.20;99.90
32201;DHT22;18701;45.588;5.288;2023-03-31T10:33:23;17.30;99.90
32201;DHT22;18701;45.588;5.288;2023-03-31T10:35:55;17.40;99.90
32201;DHT22;18701;45.588;5.288;2023-03-31T10:38:28;17.70;99.90
32201;DHT22;18701;45.588;5.288;2023-03-31T10:40:56;17.50;99.90
32201;DHT22;18701;45.588;5.288;2023-03-31T10:43:28;17.20;99.90
32201;DHT22;18701;45.588;5.288;2023-03-31T10:45:57;17.40;99.90
32201;DHT22;18701;45.588;5.288;2023-03-31T10:48:29;17.30;99.90
32201;DHT22;18701;45.588;5.288;2023-03-31T10:53:47;17.10;99.90
32201;DHT22;18701;45.588;5.288;2023-03-31T11:04:35;17.50;99.90
32201;DHT22;18701;45.588;5.288;2023-03-31T11:07:27;17.40;99.90
32201;DHT22;18701;45.588;5.288;2023-03-31T11:15:55;17.60;99.90
32201;DHT22;18701;45.588;5.288;2023-03-31T11:18:34;17.60;99.90
32201;DHT22;18701;45.588;5.288;2023-03-31T11:21:10;18.20;99.90
32201;DHT22;18701;45.588;5.288;2023-03-31T11:26:16;19.10;99.90
32201;DHT22;18701;45.588;5.288;2023-03-31T11:42:30;17.80;99.90
32201;DHT22;18701;45.588;5.288;2023-03-31T11:45:24;17.80;99.90
32201;DHT22;18701;45.588;5.288;2023-03-31T11:47:55;18.30;99.90
32201;DHT22;18701;45.588;5.288;2023-03-31T11:50:29;18.80;99.50
32201;DHT22;18701;45.588;5.288;2023-03-31T11:53:02;19.10;99.20
32201;DHT22;18701;45.588;5.288;2023-03-31T11:55:30;18.50;99.40
32201;DHT22;18701;45.588;5.288;2023-03-31T11:58:03;19.00;99.10
32201;DHT22;18701;45.588;5.288;2023-03-31T12:00:38;19.50;98.20
32201;DHT22;18701;45.588;5.288;2023-03-31T12:05:46;19.60;97.40
32201;DHT22;18701;45.588;5.288;2023-03-31T12:08:18;19.80;97.10
32201;DHT22;18701;45.588;5.288;2023-03-31T12:11:03;20.20;96.60
32201;DHT22;18701;45.588;5.288;2023-03-31T12:13:38;20.40;96.80
32201;DHT22;18701;45.588;5.288;2023-03-31T12:16:25;20.50;96.90
32201;DHT22;18701;45.588;5.288;2023-03-31T12:21:22;21.00;96.30
32201;DHT22;18701;45.588;5.288;2023-03-31T12:23:49;20.70;96.20
32201;DHT22;18701;45.588;5.288;2023-03-31T12:28:59;20.80;96.90
32201;DHT22;18701;45.588;5.288;2023-03-31T12:31:28;20.40;95.90
32201;DHT22;18701;45.588;5.288;2023-03-31T12:34:05;19.90;96.90
32201;DHT22;18701;45.588;5.288;2023-03-31T12:40:09;19.30;97.50
32201;DHT22;18701;45.588;5.288;2023-03-31T12:48:37;19.70;97.00
32201;DHT22;18701;45.588;5.288;2023-03-31T12:53:58;19.80;96.50
32201;DHT22;18701;45.588;5.288;2023-03-31T12:56:25;19.60;96.30
32201;DHT22;18701;45.588;5.288;2023-03-31T12:58:53;19.50;96.80
32201;DHT22;18701;45.588;5.288;2023-03-31T13:01:22;19.20;96.70
32201;DHT22;18701;45.588;5.288;2023-03-31T13:08:54;18.80;96.70
32201;DHT22;18701;45.588;5.288;2023-03-31T13:13:59;18.70;96.80
32201;DHT22;18701;45.588;5.288;2023-03-31T13:16:27;18.90;97.40
32201;DHT22;18701;45.588;5.288;2023-03-31T13:18:53;19.20;96.00
32201;DHT22;18701;45.588;5.288;2023-03-31T13:21:22;19.30;91.50
32201;DHT22;18701;45.588;5.288;2023-03-31T13:23:48;20.20;88.40
32201;DHT22;18701;45.588;5.288;2023-03-31T13:26:36;20.20;84.20
32201;DHT22;18701;45.588;5.288;2023-03-31T13:58:13;18.90;90.00
32201;DHT22;18701;45.588;5.288;2023-03-31T14:08:56;18.50;90.10
32201;DHT22;18701;45.588;5.288;2023-03-31T14:11:29;18.20;89.60
32201;DHT22;18701;45.588;5.288;2023-03-31T14:16:29;17.80;90.00
32201;DHT22;18701;45.588;5.288;2023-03-31T14:24:40;17.50;90.50
32201;DHT22;18701;45.588;5.288;2023-03-31T14:27:29;17.70;90.60
32201;DHT22;18701;45.588;5.288;2023-03-31T14:37:52;19.90;88.00
32201;DHT22;18701;45.588;5.288;2023-03-31T14:40:18;20.20;87.50
32201;DHT22;18701;45.588;5.288;2023-03-31T14:42:45;20.60;86.40
32201;DHT22;18701;45.588;5.288;2023-03-31T14:45:24;20.50;86.20
32201;DHT22;18701;45.588;5.288;2023-03-31T14:47:58;19.90;85.90
32201;DHT22;18701;45.588;5.288;2023-03-31T14:50:34;18.90;87.70
32201;DHT22;18701;45.588;5.288;2023-03-31T14:53:00;18.70;88.20
32201;DHT22;18701;45.588;5.288;2023-03-31T14:55:29;18.30;88.00
32201;DHT22;18701;45.588;5.288;2023-03-31T14:57:57;18.40;88.30
32201;DHT22;18701;45.588;5.288;2023-03-31T15:00:27;19.10;86.90
32201;DHT22;18701;45.588;5.288;2023-03-31T15:02:54;19.50;86.60
32201;DHT22;18701;45.588;5.288;2023-03-31T15:05:30;19.80;86.30
32201;DHT22;18701;45.588;5.288;2023-03-31T15:08:10;20.00;86.40
32201;DHT22;18701;45.588;5.288;2023-03-31T15:10:39;19.90;86.40
32201;DHT22;18701;45.588;5.288;2023-03-31T15:13:09;20.20;86.00
32201;DHT22;18701;45.588;5.288;2023-03-31T15:15:36;19.20;86.30
32201;DHT22;18701;45.588;5.288;2023-03-31T15:18:02;19.00;87.50
32201;DHT22;18701;45.588;5.288;2023-03-31T15:20:31;19.10;88.90
32201;DHT22;18701;45.588;5.288;2023-03-31T15:23:02;18.30;89.20
32201;DHT22;18701;45.588;5.288;2023-03-31T15:25:39;19.00;89.60
32201;DHT22;18701;45.588;5.288;2023-03-31T15:28:10;19.40;88.70
32201;DHT22;18701;45.588;5.288;2023-03-31T15:30:37;19.50;87.90
32201;DHT22;18701;45.588;5.288;2023-03-31T15:33:05;19.70;87.60
32201;DHT22;18701;45.588;5.288;2023-03-31T15:35:34;19.20;87.00
32201;DHT22;18701;45.588;5.288;2023-03-31T15:38:03;18.50;87.10
32201;DHT22;18701;45.588;5.288;2023-03-31T15:40:37;18.10;86.90
32201;DHT22;18701;45.588;5.288;2023-03-31T15:43:15;18.30;87.00
32201;DHT22;18701;45.588;5.288;2023-03-31T15:45:55;18.90;85.70
32201;DHT22;18701;45.588;5.288;2023-03-31T15:48:33;19.30;86.10
32201;DHT22;18701;45.588;5.288;2023-03-31T15:51:23;19.00;86.60
32201;DHT22;18701;45.588;5.288;2023-03-31T15:53:50;19.60;87.20
32201;DHT22;18701;45.588;5.288;2023-03-31T15:56:45;19.40;87.60
32201;DHT22;18701;45.588;5.288;2023-03-31T16:01:50;19.10;87.50
32201;DHT22;18701;45.588;5.288;2023-03-31T16:04:16;18.40;87.70
32201;DHT22;18701;45.588;5.288;2023-03-31T16:06:59;19.00;88.20
32201;DHT22;18701;45.588;5.288;2023-03-31T16:12:36;19.70;86.90
32201;DHT22;18701;45.588;5.288;2023-03-31T16:15:18;19.30;87.80
32201;DHT22;18701;45.588;5.288;2023-03-31T16:17:54;18.20;89.00
32201;DHT22;18701;45.588;5.288;2023-03-31T16:20:32;17.70;90.00
32201;DHT22;18701;45.588;5.288;2023-03-31T16:23:09;17.40;90.40
32201;DHT22;18701;45.588;5.288;2023-03-31T16:25:38;17.20;90.40
32201;DHT22;18701;45.588;5.288;2023-03-31T16:28:04;15.80;91.80
32201;DHT22;18701;45.588;5.288;2023-03-31T16:30:40;14.80;94.80
32201;DHT22;18701;45.588;5.288;2023-03-31T16:33:12;14.00;98.70
32201;DHT22;18701;45.588;5.288;2023-03-31T16:35:43;13.70;99.90
32201;DHT22;18701;45.588;5.288;2023-03-31T16:38:11;13.60;99.90
32201;DHT22;18701;45.588;5.288;2023-03-31T16:40:39;13.90;99.90
32201;DHT22;18701;45.588;5.288;2023-03-31T16:45:35;14.20;99.90
32201;DHT22;18701;45.588;5.288;2023-03-31T16:48:01;14.30;99.90
32201;DHT22;18701;45.588;5.288;2023-03-31T16:50:27;14.30;99.90
32201;DHT22;18701;45.588;5.288;2023-03-31T16:52:53;14.80;99.90
32201;DHT22;18701;45.588;5.288;2023-03-31T16:55:18;15.30;99.90
32201;DHT22;18701;45.588;5.288;2023-03-31T16:57:45;15.50;99.90
32201;DHT22;18701;45.588;5.288;2023-03-31T17:00:11;15.40;99.90
32201;DHT22;18701;45.588;5.288;2023-03-31T17:02:37;16.40;99.90
32201;DHT22;18701;45.588;5.288;2023-03-31T17:05:03;17.40;98.50
32201;DHT22;18701;45.588;5.288;2023-03-31T17:07:28;16.50;99.90
32201;DHT22;18701;45.588;5.288;2023-03-31T17:09:54;16.40;99.90
32201;DHT22;18701;45.588;5.288;2023-03-31T17:12:23;16.30;99.90
32201;DHT22;18701;45.588;5.288;2023-03-31T17:14:49;16.00;99.90
32201;DHT22;18701;45.588;5.288;2023-03-31T17:17:17;16.00;99.90
32201;DHT22;18701;45.588;5.288;2023-03-31T17:19:43;15.80;99.90
32201;DHT22;18701;45.588;5.288;2023-03-31T17:22:08;15.70;99.90
32201;DHT22;18701;45.588;5.288;2023-03-31T17:24:34;15.50;99.90
32201;DHT22;18701;45.588;5.288;2023-03-31T17:27:00;15.40;99.90
32201;DHT22;18701;45.588;5.288;2023-03-31T17:29:25;15.20;99.90
32201;DHT22;18701;45.588;5.288;2023-03-31T17:31:51;15.20;99.90
32201;DHT22;18701;45.588;5.288;2023-03-31T17:34:17;14.90;99.90
32201;DHT22;18701;45.588;5.288;2023-03-31T17:36:42;14.80;99.90
32201;DHT22;18701;45.588;5.288;2023-03-31T17:39:09;14.40;99.90
32201;DHT22;18701;45.588;5.288;2023-03-31T17:41:35;13.90;99.90
32201;DHT22;18701;45.588;5.288;2023-03-31T17:44:01;14.00;99.90
32201;DHT22;18701;45.588;5.288;2023-03-31T17:46:29;14.20;99.90
32201;DHT22;18701;45.588;5.288;2023-03-31T17:48:55;14.30;99.90
32201;DHT22;18701;45.588;5.288;2023-03-31T17:51:23;14.40;99.90
32201;DHT22;18701;45.588;5.288;2023-03-31T17:53:48;14.30;99.90
32201;DHT22;18701;45.588;5.288;2023-03-31T17:56:15;14.40;99.90
32201;DHT22;18701;45.588;5.288;2023-03-31T17:58:41;14.60;99.90
32201;DHT22;18701;45.588;5.288;2023-03-31T18:01:08;14.50;99.90
32201;DHT22;18701;45.588;5.288;2023-03-31T18:03:34;14.40;99.90
32201;DHT22;18701;45.588;5.288;2023-03-31T18:06:11;14.50;99.90
32201;DHT22;18701;45.588;5.288;2023-03-31T18:08:38;14.60;99.90
32201;DHT22;18701;45.588;5.288;2023-03-31T18:11:05;14.40;99.90
32201;DHT22;18701;45.588;5.288;2023-03-31T18:13:33;14.50;99.90
32201;DHT22;18701;45.588;5.288;2023-03-31T18:16:00;14.50;99.90
32201;DHT22;18701;45.588;5.288;2023-03-31T18:18:26;14.60;99.90
32201;DHT22;18701;45.588;5.288;2023-03-31T18:20:54;14.20;99.90
32201;DHT22;18701;45.588;5.288;2023-03-31T18:23:22;14.40;99.90
32201;DHT22;18701;45.588;5.288;2023-03-31T18:25:48;14.50;99.90
32201;DHT22;18701;45.588;5.288;2023-03-31T18:28:15;14.30;99.90
32201;DHT22;18701;45.588;5.288;2023-03-31T18:30:41;14.10;99.90
32201;DHT22;18701;45.588;5.288;2023-03-31T18:33:08;14.10;99.90
32201;DHT22;18701;45.588;5.288;2023-03-31T18:35:34;14.20;99.90
32201;DHT22;18701;45.588;5.288;2023-03-31T18:37:59;14.10;99.90
32201;DHT22;18701;45.588;5.288;2023-03-31T18:40:25;14.10;99.90
32201;DHT22;18701;45.588;5.288;2023-03-31T18:42:50;14.00;99.90
32201;DHT22;18701;45.588;5.288;2023-03-31T18:45:17;13.50;99.90
32201;DHT22;18701;45.588;5.288;2023-03-31T18:47:42;13.40;99.90
32201;DHT22;18701;45.588;5.288;2023-03-31T18:50:08;13.20;99.90